D/T METAR WX W/DIR W/SPE G/SPE TEMP DEWP
23/03/19 12:20 EGNR 231220Z 33009KT 300V010 9999 FEW025 10/01 Q1035 NNW (330°) 10.4mph 10°C 1°C
23/03/19 11:50 EGNR 231150Z 33007KT 270V360 9999 FEW025 09/M01 Q1035 NNW (330°) 8.1mph 9°C -1°C
23/03/19 11:20 EGNR 231120Z 33009KT 9999 FEW023 10/01 Q1035 NNW (330°) 10.4mph 10°C 1°C
23/03/19 10:50 EGNR 231050Z 33008KT 300V360 9999 FEW023 09/01 Q1035 NNW (330°) 9.2mph 9°C 1°C
23/03/19 10:20 EGNR 231020Z 32009KT 9999 SCT027 09/01 Q1034 NW (320°) 10.4mph 9°C 1°C
23/03/19 09:50 EGNR 230950Z 32009KT 9999 SCT027 08/02 Q1034 NW (320°) 10.4mph 8°C 2°C
23/03/19 09:20 EGNR 230920Z 32010KT 9999 FEW023 SCT037 08/03 Q1034 NW (320°) 11.5mph 8°C 3°C
23/03/19 08:50 EGNR 230850Z 32006KT 270V340 9999 FEW024 SCT034 08/03 Q1034 NW (320°) 6.9mph 8°C 3°C
23/03/19 08:20 EGNR 230820Z VRB03KT 9999 FEW027 08/03 Q1034 N (0°) 3.5mph 8°C 3°C
22/03/19 20:50 EGNR 222050Z 26007KT 230V290 9999 FEW037 09/07 Q1027 W (260°) 8.1mph 9°C 7°C
22/03/19 20:20 EGNR 222020Z 29007KT 240V320 9999 VCSH FEW010 SCT036 09/07 Q1027 RERA VCSH WNW (290°) 8.1mph 9°C 7°C
22/03/19 19:50 EGNR 221950Z 31013KT 9999 RA SCT008 SCT024 10/09 Q1026 RA NW (310°) 15.0mph 10°C 9°C
22/03/19 19:20 EGNR 221920Z 26016KT 9999 VCSH FEW010 11/07 Q1025 VCSH W (260°) 18.4mph 11°C 7°C
22/03/19 18:50 EGNR 221850Z 25016KT 9999 VCSH FEW010 11/07 Q1025 VCSH WSW (250°) 18.4mph 11°C 7°C
22/03/19 18:20 EGNR 221820Z 24019KT 9999 FEW010 11/07 Q1025 WSW (240°) 21.9mph 11°C 7°C
22/03/19 17:50 EGNR 221750Z 25018KT 9999 FEW014 11/07 Q1025 WSW (250°) 20.7mph 11°C 7°C
22/03/19 17:20 EGNR 221720Z 25021KT 9999 FEW018 12/07 Q1024 WSW (250°) 24.2mph 12°C 7°C
22/03/19 16:50 EGNR 221650Z 24019G29KT 9999 FEW018 12/07 Q1024 WSW (240°) 21.9mph 33.4mph 12°C 7°C
22/03/19 16:20 EGNR 221620Z 24018G28KT 210V280 9999 FEW018 12/07 Q1023 WSW (240°) 20.7mph 32.2mph 12°C 7°C
22/03/19 15:50 EGNR 221550Z VRB08G19KT 9999 FEW018 SCT024 12/07 Q1024 N (0°) 9.2mph 21.9mph 12°C 7°C
22/03/19 15:20 EGNR 221520Z VRB06KT 9999 FEW018 SCT024 12/07 Q1024 N (0°) 6.9mph 12°C 7°C
22/03/19 14:20 EGNR 221420Z 23012KT 190V260 9999 FEW018 SCT027 13/07 Q1024 SW (230°) 13.8mph 13°C 7°C
22/03/19 13:50 EGNR 221350Z 22012KT 9999 FEW020 BKN027 13/07 Q1024 SW (220°) 13.8mph 13°C 7°C
22/03/19 12:50 EGNR 221250Z 22011KT 170V240 9999 SCT020 BKN025 12/06 Q1025 SW (220°) 12.7mph 12°C 6°C
22/03/19 12:20 EGNR 221220Z 22018KT 9999 SCT020 BKN025 12/07 Q1024 SW (220°) 20.7mph 12°C 7°C
22/03/19 11:50 EGNR 221150Z 21019KT 9999 SCT020 BKN028 13/07 Q1024 SSW (210°) 21.9mph 13°C 7°C
22/03/19 11:20 EGNR 221120Z 16008KT 9999 BKN028 12/07 Q1024 SSE (160°) 9.2mph 12°C 7°C
22/03/19 10:50 EGNR 221050Z 15007KT 9999 BKN028 11/06 Q1025 SSE (150°) 8.1mph 11°C 6°C
22/03/19 10:20 EGNR 221020Z 20010KT 170V230 9999 BKN027 11/06 Q1025 SSW (200°) 11.5mph 11°C 6°C
22/03/19 09:20 EGNR 220920Z 21009KT 9999 BKN029 11/05 Q1026 SSW (210°) 10.4mph 11°C 5°C
22/03/19 08:50 EGNR 220850Z 23016KT 9999 BKN024 11/05 Q1026 SW (230°) 18.4mph 11°C 5°C
22/03/19 08:20 EGNR 220820Z 19010KT 9999 BKN027 11/07 Q1025 S (190°) 11.5mph 11°C 7°C
22/03/19 07:50 EGNR 220750Z 18007KT 9999 BKN027 11/07 Q1025 S (180°) 8.1mph 11°C 7°C
22/03/19 07:20 EGNR 220720Z 17006KT 140V210 9999 FEW023 BKN029 11/07 Q1025 S (170°) 6.9mph 11°C 7°C
22/03/19 06:20 EGNR 220620Z 17009KT 9999 FEW021 BKN027 11/08 Q1025 S (170°) 10.4mph 11°C 8°C
21/03/19 20:50 EGNR 212050Z 14004KT 9999 SCT019 10/08 Q1030 SE (140°) 4.6mph 10°C 8°C
21/03/19 19:50 EGNR 211950Z VRB01KT 9999 SCT020 11/08 Q1031 N (0°) 1.2mph 11°C 8°C
21/03/19 19:20 EGNR 211920Z 23006KT 180V310 9999 SCT026 12/09 Q1031 SW (230°) 6.9mph 12°C 9°C
21/03/19 18:50 EGNR 211850Z 15007KT 9999 SCT026 12/09 Q1031 SSE (150°) 8.1mph 12°C 9°C
21/03/19 18:20 EGNR 211820Z 16006KT 9999 SCT026 13/09 Q1031 SSE (160°) 6.9mph 13°C 9°C
21/03/19 17:50 EGNR 211750Z 16008KT 9999 BKN027 13/09 Q1031 SSE (160°) 9.2mph 13°C 9°C
21/03/19 17:20 EGNR 211720Z 19008KT 9999 BKN025 13/09 Q1031 S (190°) 9.2mph 13°C 9°C
21/03/19 16:50 EGNR 211650Z 17007KT 9999 BKN025 14/09 Q1031 S (170°) 8.1mph 14°C 9°C
21/03/19 16:20 EGNR 211620Z 16008KT 9999 BKN025 14/09 Q1031 SSE (160°) 9.2mph 14°C 9°C
21/03/19 15:50 EGNR 211550Z 16005KT 130V210 9999 BKN025 15/10 Q1031 SSE (160°) 5.8mph 15°C 10°C
21/03/19 15:20 EGNR 211520Z 06005KT 9999 BKN025 15/09 Q1031 ENE (60°) 5.8mph 15°C 9°C
21/03/19 14:50 EGNR 211450Z VRB02KT 9999 SCT015 BKN025 15/09 Q1032 N (0°) 2.3mph 15°C 9°C
21/03/19 14:20 EGNR 211420Z VRB03KT 9999 SCT012 BKN025 16/09 Q1032 N (0°) 3.5mph 16°C 9°C
21/03/19 13:20 EGNR 211320Z VRB03KT 9999 SCT012 BKN025 15/09 Q1032 N (0°) 3.5mph 15°C 9°C
21/03/19 12:50 EGNR 211250Z 23008KT 9999 BKN024 15/09 Q1033 SW (230°) 9.2mph 15°C 9°C
21/03/19 12:20 EGNR 211220Z VRB01KT 9999 BKN024 15/09 Q1033 N (0°) 1.2mph 15°C 9°C
21/03/19 11:50 EGNR 211150Z VRB02KT 9999 BKN024 14/09 Q1033 N (0°) 2.3mph 14°C 9°C
21/03/19 11:20 EGNR 211120Z 32004KT 210V020 9999 SCT020 BKN026 14/09 Q1033 NW (320°) 4.6mph 14°C 9°C
21/03/19 10:50 EGNR 211050Z 25005KT 210V290 9999 SCT020 BKN026 13/09 Q1033 WSW (250°) 5.8mph 13°C 9°C
21/03/19 10:20 EGNR 211020Z 24007KT 9999 SCT026 12/09 Q1033 WSW (240°) 8.1mph 12°C 9°C
21/03/19 09:20 EGNR 210920Z 23008KT 9999 SCT032 12/09 Q1033 SW (230°) 9.2mph 12°C 9°C
21/03/19 08:50 EGNR 210850Z 24010KT 9999 SCT032 11/08 Q1033 WSW (240°) 11.5mph 11°C 8°C
21/03/19 08:20 EGNR 210820Z 24008KT 9999 SCT032 11/09 Q1033 WSW (240°) 9.2mph 11°C 9°C
21/03/19 07:50 EGNR 210750Z 16004KT 130V210 9999 SCT030 10/09 Q1032 SSE (160°) 4.6mph 10°C 9°C
21/03/19 07:20 EGNR 210720Z 13004KT 9999 SCT030 09/08 Q1032 SE (130°) 4.6mph 9°C 8°C
21/03/19 06:20 EGNR 210620Z VRB03KT 9999 FEW027 09/07 Q1032 N (0°) 3.5mph 9°C 7°C
20/03/19 20:50 EGNR 202050Z 20010KT CAVOK 10/07 Q1031 SSW (200°) 11.5mph 10°C 7°C
20/03/19 20:20 EGNR 202020Z 19008KT 9999 FEW045 10/07 Q1031 S (190°) 9.2mph 10°C 7°C
20/03/19 19:50 EGNR 201950Z 20008KT 9999 FEW045 11/07 Q1031 SSW (200°) 9.2mph 11°C 7°C
20/03/19 19:20 EGNR 201920Z 19007KT 9999 FEW045 12/07 Q1031 S (190°) 8.1mph 12°C 7°C
20/03/19 18:50 EGNR 201850Z 22006KT 9999 FEW040 12/07 Q1031 SW (220°) 6.9mph 12°C 7°C
20/03/19 17:50 EGNR 201750Z 22006KT 9999 FEW025 14/08 Q1030 SW (220°) 6.9mph 14°C 8°C
20/03/19 17:20 EGNR 201720Z 24013KT 9999 FEW025 15/08 Q1030 WSW (240°) 15.0mph 15°C 8°C
20/03/19 16:50 EGNR 201650Z 24013KT 9999 FEW020 16/08 Q1030 WSW (240°) 15.0mph 16°C 8°C
20/03/19 16:20 EGNR 201620Z 25007KT 220V310 9999 FEW018 17/09 Q1030 WSW (250°) 8.1mph 17°C 9°C
20/03/19 15:20 EGNR 201520Z 30005KT 9999 SCT030 17/11 Q1030 WNW (300°) 5.8mph 17°C 11°C
20/03/19 14:50 EGNR 201450Z 31011KT 9999 SCT030 18/11 Q1030 NW (310°) 12.7mph 18°C 11°C
20/03/19 14:20 EGNR 201420Z 15007KT 120V180 9999 FEW028 18/11 Q1029 SSE (150°) 8.1mph 18°C 11°C
20/03/19 13:50 EGNR 201350Z 14006KT 100V170 9999 FEW028 18/11 Q1030 SE (140°) 6.9mph 18°C 11°C
20/03/19 13:20 EGNR 201320Z 15006KT 130V190 9999 FEW030 18/12 Q1030 SSE (150°) 6.9mph 18°C 12°C
20/03/19 12:50 EGNR 201250Z VRB04KT 9999 FEW030 18/11 Q1030 N (0°) 4.6mph 18°C 11°C
20/03/19 12:20 EGNR 201220Z 11005KT 060V150 9999 FEW025 17/11 Q1030 ESE (110°) 5.8mph 17°C 11°C
20/03/19 11:50 EGNR 201150Z 11005KT 060V150 CAVOK 16/11 Q1030 ESE (110°) 5.8mph 16°C 11°C
20/03/19 11:20 EGNR 201120Z 14004KT 100V220 CAVOK 15/10 Q1030 SE (140°) 4.6mph 15°C 10°C
20/03/19 10:50 EGNR 201050Z 13005KT CAVOK 15/10 Q1030 SE (130°) 5.8mph 15°C 10°C
20/03/19 10:20 EGNR 201020Z 14005KT 120V180 CAVOK 14/10 Q1030 SE (140°) 5.8mph 14°C 10°C
20/03/19 09:50 EGNR 200950Z 14005KT CAVOK 13/09 Q1030 SE (140°) 5.8mph 13°C 9°C
20/03/19 09:20 EGNR 200920Z 14004KT CAVOK 12/09 Q1031 SE (140°) 4.6mph 12°C 9°C
20/03/19 08:50 EGNR 200850Z 14004KT CAVOK 12/09 Q1031 SE (140°) 4.6mph 12°C 9°C
20/03/19 08:20 EGNR 200820Z VRB02KT CAVOK 10/09 Q1031 N (0°) 2.3mph 10°C 9°C
20/03/19 07:50 EGNR 200750Z VRB03KT CAVOK 07/07 Q1031 N (0°) 3.5mph 7°C 7°C
20/03/19 07:20 EGNR 200720Z VRB02KT 9999 FEW020 07/06 Q1030 N (0°) 2.3mph 7°C 6°C
20/03/19 06:20 EGNR 200620Z 16003KT 9999 SCT048 07/06 Q1030 SSE (160°) 3.5mph 7°C 6°C
19/03/19 22:20 EGNR 192220Z 24008KT 9999 SCT033 10/08 Q1028 WSW (240°) 9.2mph 10°C 8°C
19/03/19 21:50 EGNR 192150Z 22008KT 9999 SCT033 10/08 Q1028 SW (220°) 9.2mph 10°C 8°C
19/03/19 21:20 EGNR 192120Z 23008KT 9999 SCT033 09/07 Q1028 SW (230°) 9.2mph 9°C 7°C
19/03/19 20:50 EGNR 192050Z 23008KT 9999 SCT033 09/07 Q1028 SW (230°) 9.2mph 9°C 7°C
19/03/19 20:20 EGNR 192020Z 22009KT 9999 SCT040 09/07 Q1027 SW (220°) 10.4mph 9°C 7°C
19/03/19 19:50 EGNR 191950Z 24012KT 9999 SCT038 10/07 Q1027 WSW (240°) 13.8mph 10°C 7°C
19/03/19 19:20 EGNR 191920Z 26004KT 190V330 9999 FEW020 BKN038 11/07 Q1027 W (260°) 4.6mph 11°C 7°C
19/03/19 18:50 EGNR 191850Z 27006KT 220V320 9999 FEW020 BKN039 11/07 Q1027 W (270°) 6.9mph 11°C 7°C
19/03/19 18:20 EGNR 191820Z 28004KT 240V340 9999 FEW020 BKN041 12/07 Q1027 W (280°) 4.6mph 12°C 7°C
19/03/19 17:50 EGNR 191750Z VRB03KT 9999 FEW020 SCT025 12/07 Q1027 N (0°) 3.5mph 12°C 7°C
19/03/19 17:20 EGNR 191720Z 25004KT 200V320 9999 FEW018 SCT028 12/07 Q1026 WSW (250°) 4.6mph 12°C 7°C
19/03/19 16:50 EGNR 191650Z 26005KT 230V300 9999 FEW018 SCT028 12/07 Q1026 W (260°) 5.8mph 12°C 7°C
19/03/19 16:20 EGNR 191620Z 25005KT 210V280 9999 FEW018 12/07 Q1026 WSW (250°) 5.8mph 12°C 7°C
19/03/19 15:50 EGNR 191550Z 22008KT 9999 FEW020 SCT034 12/07 Q1026 SW (220°) 9.2mph 12°C 7°C
19/03/19 15:20 EGNR 191520Z 24011KT 9999 FEW020 SCT034 12/07 Q1026 WSW (240°) 12.7mph 12°C 7°C
19/03/19 14:50 EGNR 191450Z 23011KT 9999 FEW020 SCT034 12/07 Q1025 SW (230°) 12.7mph 12°C 7°C
19/03/19 13:50 EGNR 191350Z 23010KT 9999 FEW025 11/07 Q1026 SW (230°) 11.5mph 11°C 7°C
19/03/19 13:20 EGNR 191320Z 23011KT 9999 SCT025 12/07 Q1026 SW (230°) 12.7mph 12°C 7°C
19/03/19 12:50 EGNR 191250Z 23012KT 9999 SCT025 12/07 Q1026 SW (230°) 13.8mph 12°C 7°C
19/03/19 12:20 EGNR 191220Z 22011KT 9999 FEW018 SCT025 12/08 Q1026 SW (220°) 12.7mph 12°C 8°C
19/03/19 11:50 EGNR 191150Z 22010KT 9999 FEW018 SCT025 12/07 Q1026 SW (220°) 11.5mph 12°C 7°C
19/03/19 11:20 EGNR 191120Z 24008KT 200V300 9999 FEW008 SCT018 12/08 Q1026 WSW (240°) 9.2mph 12°C 8°C
19/03/19 10:50 EGNR 191050Z 24007KT 9999 FEW008 SCT018 BKN028 12/07 Q1026 WSW (240°) 8.1mph 12°C 7°C
19/03/19 10:20 EGNR 191020Z VRB03KT 9999 FEW008 SCT018 BKN028 12/07 Q1026 N (0°) 3.5mph 12°C 7°C
19/03/19 09:50 EGNR 190950Z 13004KT 100V160 9999 SCT018 BKN030 11/09 Q1026 SE (130°) 4.6mph 11°C 9°C
19/03/19 09:20 EGNR 190920Z VRB02KT 9999 SCT018 BKN030 10/08 Q1026 N (0°) 2.3mph 10°C 8°C
19/03/19 08:50 EGNR 190850Z VRB02KT 9999 SCT018 10/08 Q1026 N (0°) 2.3mph 10°C 8°C
19/03/19 08:20 EGNR 190820Z VRB01KT 9999 FEW018 10/09 Q1026 N (0°) 1.2mph 10°C 9°C
19/03/19 07:50 EGNR 190750Z VRB01KT 9999 FEW018 07/07 Q1025 N (0°) 1.2mph 7°C 7°C
19/03/19 07:20 EGNR 190720Z 14002KT 9999 FEW018 SCT022 07/07 Q1025 SE (140°) 2.3mph 7°C 7°C
19/03/19 06:50 EGNR 190650Z 20002KT 9999 FEW010 SCT020 BKN048 07/06 Q1025 SSW (200°) 2.3mph 7°C 6°C
19/03/19 06:20 EGNR 190620Z 21002KT 9999 FEW010 SCT020 BKN048 07/06 Q1025 SSW (210°) 2.3mph 7°C 6°C
18/03/19 21:20 EGNR 182120Z 00000KT 9999 SCT014 BKN032 08/07 Q1023 N (0°) 8°C 7°C
18/03/19 20:50 EGNR 182050Z VRB01KT 9999 SCT014 BKN032 08/07 Q1023 N (0°) 1.2mph 8°C 7°C
18/03/19 20:20 EGNR 182020Z VRB03KT 9999 SCT023 BKN032 08/07 Q1022 N (0°) 3.5mph 8°C 7°C
18/03/19 19:50 EGNR 181950Z VRB01KT 9999 SCT020 BKN026 08/07 Q1022 N (0°) 1.2mph 8°C 7°C
18/03/19 19:20 EGNR 181920Z 16002KT 8000 VCSH SCT016 BKN026 08/07 Q1022 VCSH SSE (160°) 2.3mph 8°C 7°C
18/03/19 18:50 EGNR 181850Z 18004KT 6000 -SHRA BKN016 08/07 Q1022 -SHRA S (180°) 4.6mph 8°C 7°C
18/03/19 18:20 EGNR 181820Z 16004KT 7000 3000N -SHRA BKN016 08/07 Q1021 -SHRA SSE (160°) 4.6mph 8°C 7°C
18/03/19 17:50 EGNR 181750Z 15004KT 5000 -SHRA BKN016 08/07 Q1021 -SHRA SSE (150°) 4.6mph 8°C 7°C
18/03/19 17:20 EGNR 181720Z 14004KT 5000 -SHRA SCT014 SCT017 08/07 Q1021 RESHRA -SHRA SE (140°) 4.6mph 8°C 7°C
18/03/19 16:50 EGNR 181650Z 13004KT 4000 SHRA OVC014 08/06 Q1021 SHRA SE (130°) 4.6mph 8°C 6°C
18/03/19 16:20 EGNR 181620Z 12004KT 9999 -SHRA SCT016 BKN023 08/06 Q1021 -SHRA ESE (120°) 4.6mph 8°C 6°C
18/03/19 15:50 EGNR 181550Z 13005KT 9999 -SHRA SCT018 SCT030 08/06 Q1020 -SHRA SE (130°) 5.8mph 8°C 6°C
18/03/19 15:20 EGNR 181520Z 08004KT 9999 -SHRA SCT018 SCT030 09/06 Q1020 -SHRA E (80°) 4.6mph 9°C 6°C
18/03/19 14:50 EGNR 181450Z 07005KT 9999 -SHRA SCT018 SCT030 09/06 Q1020 -SHRA ENE (70°) 5.8mph 9°C 6°C
18/03/19 14:20 EGNR 181420Z 08004KT 9999 SCT018 BKN028 09/05 Q1020 E (80°) 4.6mph 9°C 5°C
18/03/19 13:50 EGNR 181350Z VRB03KT 9999 FEW016 BKN028 09/05 Q1020 N (0°) 3.5mph 9°C 5°C
18/03/19 13:20 EGNR 181320Z VRB02KT 9999 FEW016 BKN030 09/04 Q1020 N (0°) 2.3mph 9°C 4°C
18/03/19 12:50 EGNR 181250Z VRB02KT 9999 -SHRA FEW020 BKN035 09/04 Q1020 -SHRA N (0°) 2.3mph 9°C 4°C
18/03/19 12:20 EGNR 181220Z VRB03KT 9999 SCT024 SCT035 09/04 Q1020 N (0°) 3.5mph 9°C 4°C
18/03/19 11:50 EGNR 181150Z VRB02KT 9999 SCT020 SCT030 09/04 Q1020 N (0°) 2.3mph 9°C 4°C
18/03/19 11:20 EGNR 181120Z 31004KT 250V030 9999 SCT020 SCT030 09/04 Q1020 NW (310°) 4.6mph 9°C 4°C
18/03/19 10:50 EGNR 181050Z 27005KT 220V310 9999 SCT018 SCT030 08/04 Q1020 W (270°) 5.8mph 8°C 4°C
18/03/19 10:20 EGNR 181020Z 27005KT 230V320 9999 SCT020 SCT030 08/03 Q1020 W (270°) 5.8mph 8°C 3°C
18/03/19 09:50 EGNR 180950Z 26006KT 9999 SCT020 SCT048 08/03 Q1020 W (260°) 6.9mph 8°C 3°C